Time;durP1;ratioP1;P1;durP2;ratioP2;P2;SDS_P1;SDS_P2;PMS_P1;PMS_P2;Temp;Humidity;BMP_temperature;BMP_pressure;BME280_temperature;BME280_humidity;BME280_pressure;Samples;Min_cycle;Max_cycle;Signal;HPM_P1;HPM_P2
2023/03/05 00:01:23;;;;;;;16.70;15.07;;;8.00;45.60;;;;;;4989920;28;20389;-76
2023/03/05 00:03:51;;;;;;;18.57;15.50;;;8.00;45.60;;;;;;4990167;28;20029;-75
2023/03/05 00:06:21;;;;;;;17.45;15.60;;;7.90;45.40;;;;;;4983584;28;20129;-74
2023/03/05 00:08:47;;;;;;;17.63;15.77;;;7.90;45.40;;;;;;4977770;28;20100;-74
2023/03/05 00:11:13;;;;;;;17.92;15.68;;;7.90;45.40;;;;;;4988931;28;20060;-76
2023/03/05 00:13:40;;;;;;;18.48;16.13;;;8.00;45.60;;;;;;4986046;28;20549;-75
2023/03/05 00:16:09;;;;;;;16.27;14.07;;;8.00;46.20;;;;;;4984442;28;20088;-75
2023/03/05 00:18:35;;;;;;;17.42;15.60;;;7.90;45.50;;;;;;4982534;28;20034;-75
2023/03/05 00:21:03;;;;;;;18.42;15.98;;;7.90;45.50;;;;;;4982990;28;20034;-75
2023/03/05 00:23:29;;;;;;;17.33;14.23;;;8.00;46.20;;;;;;4985426;28;20042;-75
2023/03/05 00:25:55;;;;;;;16.67;14.98;;;7.90;45.50;;;;;;4985771;28;20034;-74
2023/03/05 00:28:21;;;;;;;17.20;15.40;;;7.90;45.50;;;;;;4979370;28;20118;-74
2023/03/05 00:30:48;;;;;;;16.90;15.15;;;7.90;45.50;;;;;;4981153;28;20129;-74
2023/03/05 00:33:14;;;;;;;16.92;15.13;;;7.90;45.50;;;;;;4990288;28;20211;-74
2023/03/05 00:35:45;;;;;;;16.88;15.15;;;7.90;45.60;;;;;;4967415;28;20413;-75
2023/03/05 00:38:12;;;;;;;16.42;14.70;;;7.90;45.50;;;;;;4982995;28;20150;-74
2023/03/05 00:40:40;;;;;;;18.92;15.75;;;7.90;45.60;;;;;;4975863;28;20022;-75
2023/03/05 00:43:07;;;;;;;17.75;15.68;;;7.80;45.40;;;;;;4991741;28;20143;-74
2023/03/05 00:45:33;;;;;;;16.77;14.65;;;7.80;45.40;;;;;;4975260;28;20043;-73
2023/03/05 00:48:03;;;;;;;15.93;14.13;;;7.80;45.40;;;;;;4981351;28;20050;-74
2023/03/05 00:50:29;;;;;;;15.52;13.90;;;7.80;45.50;;;;;;4982430;28;20037;-75
2023/03/05 00:52:55;;;;;;;17.33;14.85;;;7.80;45.50;;;;;;4985036;28;20420;-75
2023/03/05 00:55:21;;;;;;;16.83;15.02;;;7.80;45.50;;;;;;4989226;28;20042;-74
2023/03/05 00:57:47;;;;;;;17.63;15.30;;;7.80;45.60;;;;;;4989772;28;20045;-75
2023/03/05 01:00:14;;;;;;;17.23;15.43;;;7.70;45.40;;;;;;4983812;28;20363;-75
2023/03/05 01:02:41;;;;;;;16.73;15.02;;;7.70;45.50;;;;;;4990188;28;20085;-75
2023/03/05 01:05:11;;;;;;;17.58;15.60;;;7.70;45.50;;;;;;4990684;28;20037;-74
2023/03/05 01:07:37;;;;;;;17.33;14.60;;;7.70;45.50;;;;;;4979639;28;20549;-75
2023/03/05 01:10:04;;;;;;;16.08;14.38;;;7.70;45.50;;;;;;4977082;28;20106;-76
2023/03/05 01:12:30;;;;;;;17.42;15.55;;;7.70;45.50;;;;;;4987360;28;20622;-75
2023/03/05 01:14:56;;;;;;;18.17;15.95;;;7.70;45.50;;;;;;4981610;28;20236;-76
2023/03/05 01:17:22;;;;;;;17.75;15.88;;;7.70;45.50;;;;;;4964063;28;20069;-75
2023/03/05 01:19:47;;;;;;;18.58;16.52;;;7.70;45.50;;;;;;4977898;28;20141;-75
2023/03/05 01:22:13;;;;;;;18.52;14.38;;;7.70;45.50;;;;;;4983633;28;20401;-75
2023/03/05 01:24:39;;;;;;;17.75;15.10;;;7.70;45.60;;;;;;4980751;28;20034;-75
2023/03/05 01:27:05;;;;;;;23.65;17.30;;;7.60;45.40;;;;;;4983384;28;20035;-75
2023/03/05 01:29:31;;;;;;;18.63;16.52;;;7.70;45.60;;;;;;4981717;28;20484;-77
2023/03/05 01:31:57;;;;;;;17.75;15.85;;;7.60;45.40;;;;;;4989173;28;20113;-75
2023/03/05 01:34:23;;;;;;;18.58;15.98;;;7.60;45.50;;;;;;4976919;28;20031;-75
2023/03/05 01:36:49;;;;;;;17.27;14.80;;;7.60;45.50;;;;;;4982603;28;20034;-74
2023/03/05 01:39:16;;;;;;;18.42;16.52;;;7.60;45.50;;;;;;4972649;28;20038;-74
2023/03/05 01:41:42;;;;;;;17.58;15.65;;;7.60;45.60;;;;;;4984454;28;20045;-75
2023/03/05 01:44:23;;;;;;;19.58;16.27;;;7.60;45.60;;;;;;4987388;28;20040;-75
2023/03/05 01:46:49;;;;;;;18.98;14.77;;;7.60;45.70;;;;;;4977420;28;20189;-75
2023/03/05 01:49:31;;;;;;;16.83;14.98;;;7.60;45.70;;;;;;4974552;28;20106;-75
2023/03/05 01:52:16;;;;;;;17.67;15.87;;;7.60;45.70;;;;;;4981390;28;20369;-75
2023/03/05 01:54:55;;;;;;;17.90;14.88;;;7.60;45.80;;;;;;4980305;28;20338;-75
2023/03/05 01:57:32;;;;;;;20.08;15.52;;;7.50;45.60;;;;;;4980243;28;20037;-74
2023/03/05 02:00:02;;;;;;;18.27;15.25;;;7.50;45.60;;;;;;4981444;28;20099;-76
2023/03/05 02:02:40;;;;;;;19.00;15.15;;;7.50;45.70;;;;;;4987182;28;20030;-74
2023/03/05 02:05:12;;;;;;;17.63;15.15;;;7.50;45.80;;;;;;4964407;28;20030;-75
2023/03/05 02:07:41;;;;;;;17.58;15.77;;;7.50;45.80;;;;;;4980284;28;20034;-74
2023/03/05 02:10:18;;;;;;;19.60;16.83;;;7.50;45.80;;;;;;4980402;28;20030;-75
2023/03/05 02:12:45;;;;;;;17.65;15.57;;;7.50;45.90;;;;;;4981764;28;20369;-76
2023/03/05 02:15:11;;;;;;;19.40;17.10;;;7.50;46.50;;;;;;4981010;28;20074;-75
2023/03/05 02:17:38;;;;;;;17.80;15.90;;;7.50;45.90;;;;;;4979386;28;20069;-75
2023/03/05 02:20:21;;;;;;;19.55;16.58;;;7.40;45.80;;;;;;4955927;28;20382;-75
2023/03/05 02:22:47;;;;;;;19.52;16.85;;;7.40;45.80;;;;;;4982362;28;20061;-75
2023/03/05 02:25:18;;;;;;;17.27;15.52;;;7.40;45.80;;;;;;4981731;28;20061;-75
2023/03/05 02:27:55;;;;;;;20.92;16.50;;;7.40;45.80;;;;;;4984355;28;20194;-75
2023/03/05 02:30:23;;;;;;;18.00;15.70;;;7.40;45.80;;;;;;4982583;28;20035;-75
2023/03/05 02:32:50;;;;;;;19.58;16.67;;;7.40;45.80;;;;;;4980995;28;20296;-75
2023/03/05 02:35:18;;;;;;;18.00;16.02;;;7.40;45.80;;;;;;4963691;28;20060;-75
2023/03/05 02:37:45;;;;;;;20.73;17.92;;;7.40;45.90;;;;;;4963885;28;20042;-75
2023/03/05 02:40:12;;;;;;;20.30;16.30;;;7.40;45.90;;;;;;4980122;28;20041;-74
2023/03/05 02:42:40;;;;;;;19.95;16.70;;;7.40;46.60;;;;;;4964957;28;20031;-74
2023/03/05 02:45:09;;;;;;;18.27;16.38;;;7.40;46.00;;;;;;4978813;28;20092;-75
2023/03/05 02:47:35;;;;;;;20.05;18.05;;;7.40;46.00;;;;;;4977559;28;20088;-74
2023/03/05 02:50:01;;;;;;;19.65;17.40;;;7.40;46.10;;;;;;4984758;28;20034;-74
2023/03/05 02:52:29;;;;;;;19.75;16.35;;;7.30;45.90;;;;;;4982610;28;20128;-75
2023/03/05 02:54:55;;;;;;;17.98;16.08;;;7.40;46.10;;;;;;4984465;28;20038;-74
2023/03/05 02:57:24;;;;;;;20.88;16.90;;;7.30;46.00;;;;;;4986502;28;20041;-75
2023/03/05 02:59:50;;;;;;;18.90;16.50;;;7.30;46.00;;;;;;4990686;28;20035;-74
2023/03/05 03:02:16;;;;;;;19.55;16.85;;;7.30;46.00;;;;;;4968619;28;20030;-75
2023/03/05 03:04:43;;;;;;;22.55;17.60;;;7.30;46.00;;;;;;4985514;28;20030;-76
2023/03/05 03:07:13;;;;;;;19.20;16.30;;;7.30;46.10;;;;;;4985949;28;20073;-75
2023/03/05 03:09:41;;;;;;;21.48;16.08;;;7.30;46.10;;;;;;4999404;28;20085;-75
2023/03/05 03:12:08;;;;;;;18.52;15.68;;;7.30;46.10;;;;;;4984236;28;20146;-74
2023/03/05 03:14:38;;;;;;;18.77;16.55;;;7.30;46.10;;;;;;4989568;28;20114;-74
2023/03/05 03:17:11;;;;;;;20.63;16.55;;;7.30;46.10;;;;;;4972034;28;20026;-76
2023/03/05 03:19:38;;;;;;;20.08;15.65;;;7.30;46.10;;;;;;4972646;28;20663;-74
2023/03/05 03:22:06;;;;;;;18.52;16.63;;;7.30;46.10;;;;;;4985113;28;20033;-74
2023/03/05 03:24:33;;;;;;;19.77;17.45;;;7.30;46.10;;;;;;4987296;28;20026;-75
2023/03/05 03:26:59;;;;;;;19.30;17.23;;;7.30;46.10;;;;;;4992406;28;20421;-75
2023/03/05 03:29:25;;;;;;;20.65;17.63;;;7.30;46.10;;;;;;4994081;28;20476;-75
2023/03/05 03:31:51;;;;;;;19.42;16.15;;;7.30;46.20;;;;;;4994261;28;20037;-75
2023/03/05 03:34:18;;;;;;;22.33;17.98;;;7.20;46.00;;;;;;4990078;28;20046;-75
2023/03/05 03:36:45;;;;;;;18.52;16.02;;;7.20;46.00;;;;;;5005991;28;20551;-75
2023/03/05 03:39:13;;;;;;;20.75;16.55;;;7.20;46.10;;;;;;5007612;28;20042;-75
2023/03/05 03:41:44;;;;;;;20.42;17.00;;;7.20;46.10;;;;;;4991706;28;20208;-74
2023/03/05 03:44:10;;;;;;;19.45;16.83;;;7.20;46.10;;;;;;5001468;28;20491;-75
2023/03/05 03:46:38;;;;;;;19.35;16.88;;;7.20;46.10;;;;;;5020247;28;20081;-76
2023/03/05 03:49:05;;;;;;;22.75;17.75;;;7.20;46.10;;;;;;5001347;28;20030;-75
2023/03/05 03:51:31;;;;;;;20.02;16.13;;;7.20;46.20;;;;;;4995308;28;20042;-75
2023/03/05 03:53:57;;;;;;;18.85;16.48;;;7.20;46.20;;;;;;4989227;28;20664;-75
2023/03/05 03:56:23;;;;;;;19.13;16.27;;;7.10;46.00;;;;;;4991443;28;20099;-75
2023/03/05 03:58:51;;;;;;;19.55;16.70;;;7.20;46.20;;;;;;4989935;28;20124;-75
2023/03/05 04:01:18;;;;;;;20.00;15.95;;;7.10;46.10;;;;;;4992824;28;20440;-75
2023/03/05 04:03:45;;;;;;;17.83;15.80;;;7.10;46.10;;;;;;4997782;28;20041;-76
2023/03/05 04:06:11;;;;;;;16.92;15.10;;;7.10;46.10;;;;;;4990554;28;20402;-75
2023/03/05 04:08:37;;;;;;;17.95;15.30;;;7.10;46.10;;;;;;4990094;28;20104;-74
2023/03/05 04:11:03;;;;;;;17.00;13.45;;;7.10;46.10;;;;;;4988990;28;20110;-75
2023/03/05 04:13:30;;;;;;;16.20;14.43;;;7.10;46.10;;;;;;4989105;28;20042;-74
2023/03/05 04:15:56;;;;;;;19.13;14.40;;;7.10;46.10;;;;;;4988792;28;20085;-75
2023/03/05 04:18:22;;;;;;;17.17;13.88;;;7.20;46.30;;;;;;4978138;28;20066;-79
2023/03/05 04:20:47;;;;;;;15.07;12.85;;;7.20;46.30;;;;;;4985639;28;20711;-78
2023/03/05 04:23:14;;;;;;;14.38;12.52;;;7.10;46.10;;;;;;4991725;28;20126;-77
2023/03/05 04:25:39;;;;;;;15.32;12.48;;;7.10;46.10;;;;;;4989575;28;20035;-79
2023/03/05 04:28:09;;;;;;;14.43;12.38;;;7.10;46.10;;;;;;4998515;28;20026;-78
2023/03/05 04:30:35;;;;;;;14.98;12.00;;;7.10;46.10;;;;;;4983182;28;20050;-78
2023/03/05 04:33:02;;;;;;;12.50;11.23;;;7.10;46.10;;;;;;4992229;28;20034;-78
2023/03/05 04:35:28;;;;;;;12.57;11.30;;;7.10;46.10;;;;;;4989836;28;20061;-79
2023/03/05 04:37:54;;;;;;;12.00;10.68;;;7.10;46.10;;;;;;4985136;28;20039;-78
2023/03/05 04:40:20;;;;;;;15.10;10.75;;;7.10;46.10;;;;;;4989870;28;20068;-79
2023/03/05 04:42:46;;;;;;;12.05;9.77;;;7.10;46.10;;;;;;4990116;28;20030;-78
2023/03/05 04:45:13;;;;;;;12.70;10.77;;;7.10;46.20;;;;;;4987227;28;20034;-78
2023/03/05 04:47:39;;;;;;;12.18;10.88;;;7.10;46.10;;;;;;4989120;28;20058;-78
2023/03/05 04:50:06;;;;;;;12.18;10.70;;;7.10;46.20;;;;;;4989769;28;20116;-77
2023/03/05 04:52:32;;;;;;;9.70;8.73;;;7.10;46.20;;;;;;4988305;28;20045;-79
2023/03/05 04:54:58;;;;;;;10.40;9.15;;;7.10;46.20;;;;;;4986706;28;20093;-80
2023/03/05 04:57:24;;;;;;;11.95;9.15;;;7.00;46.00;;;;;;4970530;28;20073;-78
2023/03/05 04:59:50;;;;;;;10.40;8.23;;;7.00;46.00;;;;;;4987456;28;20030;-79
2023/03/05 05:02:16;;;;;;;12.43;8.40;;;7.10;46.20;;;;;;4987452;28;20513;-78
2023/03/05 05:04:44;;;;;;;9.70;7.45;;;7.10;46.20;;;;;;4987920;28;20038;-78
2023/03/05 05:07:11;;;;;;;8.95;7.68;;;7.00;46.00;;;;;;4986224;28;20520;-77
2023/03/05 05:09:38;;;;;;;8.95;7.03;;;7.00;46.00;;;;;;4997201;28;20577;-77
2023/03/05 05:12:04;;;;;;;8.65;6.63;;;7.00;46.00;;;;;;4987878;28;20041;-78
2023/03/05 05:14:30;;;;;;;7.70;6.80;;;7.00;45.90;;;;;;4985731;28;20046;-77
2023/03/05 05:16:56;;;;;;;7.90;6.70;;;7.00;46.00;;;;;;4986391;28;20033;-78
2023/03/05 05:19:22;;;;;;;7.80;6.93;;;7.00;45.90;;;;;;4982827;28;20027;-78
2023/03/05 05:21:48;;;;;;;7.75;6.78;;;7.00;45.90;;;;;;4980975;28;20106;-82
2023/03/05 05:24:14;;;;;;;8.50;5.90;;;7.00;45.90;;;;;;4985675;28;20026;-78
2023/03/05 05:26:39;;;;;;;7.93;6.50;;;7.00;45.90;;;;;;4987098;28;20748;-77
2023/03/05 05:29:05;;;;;;;8.00;6.22;;;7.00;45.90;;;;;;4986124;28;20034;-77
2023/03/05 05:31:31;;;;;;;10.55;6.22;;;7.00;45.90;;;;;;4983526;28;20045;-78
2023/03/05 05:33:57;;;;;;;6.85;5.60;;;7.00;45.90;;;;;;4986892;28;20041;-77
2023/03/05 05:36:23;;;;;;;8.15;6.03;;;7.00;45.90;;;;;;4984907;28;20034;-78
2023/03/05 05:38:49;;;;;;;7.07;5.72;;;7.00;45.90;;;;;;4987601;28;20038;-77
2023/03/05 05:41:17;;;;;;;7.22;6.13;;;7.00;45.90;;;;;;4988077;28;20038;-77
2023/03/05 05:43:43;;;;;;;6.78;5.75;;;7.00;45.90;;;;;;4982624;28;20026;-77
2023/03/05 05:46:18;;;;;;;6.35;5.35;;;6.90;45.70;;;;;;4971171;28;20144;-77
2023/03/05 05:48:44;;;;;;;5.35;4.85;;;6.90;45.70;;;;;;4982235;28;20469;-78
2023/03/05 05:51:18;;;;;;;6.20;4.50;;;6.90;45.70;;;;;;4982821;28;20038;-77
2023/03/05 05:53:45;;;;;;;8.15;5.00;;;6.90;45.70;;;;;;4981451;28;20121;-78
2023/03/05 05:56:12;;;;;;;5.93;4.72;;;6.90;45.70;;;;;;4981701;28;20039;-78
2023/03/05 05:58:40;;;;;;;5.88;4.70;;;6.90;45.70;;;;;;4983601;28;20038;-79
2023/03/05 06:01:21;;;;;;;6.00;4.20;;;6.90;45.70;;;;;;4983796;28;20038;-78
2023/03/05 06:03:48;;;;;;;4.72;4.25;;;6.90;45.70;;;;;;4975614;28;20088;-78
2023/03/05 06:06:17;;;;;;;5.72;4.57;;;6.90;45.70;;;;;;4979430;28;20113;-79
2023/03/05 06:08:43;;;;;;;4.85;4.05;;;6.90;45.70;;;;;;4965553;28;20058;-78
2023/03/05 06:11:12;;;;;;;3.97;3.58;;;6.90;45.70;;;;;;4982830;28;20502;-78
2023/03/05 06:13:38;;;;;;;6.32;4.28;;;6.90;45.70;;;;;;4980052;28;20086;-77
2023/03/05 06:16:07;;;;;;;4.32;3.83;;;6.90;45.70;;;;;;4983289;28;20445;-77
2023/03/05 06:18:34;;;;;;;6.20;4.75;;;6.90;45.60;;;;;;4989680;28;20104;-76
2023/03/05 06:21:06;;;;;;;4.85;4.13;;;6.90;45.60;;;;;;4980386;28;20441;-76
2023/03/05 06:23:32;;;;;;;4.68;3.83;;;6.90;45.70;;;;;;4981056;28;20169;-76
2023/03/05 06:26:00;;;;;;;4.43;3.92;;;6.90;45.60;;;;;;4981733;28;20084;-75
2023/03/05 06:28:27;;;;;;;5.70;3.90;;;6.90;45.60;;;;;;4985619;28;20042;-76
2023/03/05 06:31:04;;;;;;;4.47;3.75;;;6.90;45.60;;;;;;4981866;28;20144;-76
2023/03/05 06:33:30;;;;;;;4.13;3.72;;;6.90;45.60;;;;;;4978182;28;20046;-76
2023/03/05 06:35:57;;;;;;;4.40;3.75;;;6.90;45.50;;;;;;4979825;28;20394;-75
2023/03/05 06:38:24;;;;;;;4.57;3.90;;;6.90;45.50;;;;;;4981312;28;20039;-76
2023/03/05 06:40:51;;;;;;;4.80;4.07;;;6.90;45.50;;;;;;4986441;28;20386;-76
2023/03/05 06:43:17;;;;;;;5.60;3.65;;;6.90;45.50;;;;;;4981445;28;20496;-77
2023/03/05 06:45:43;;;;;;;6.03;4.03;;;6.90;45.50;;;;;;4985545;28;20038;-76
2023/03/05 06:48:10;;;;;;;4.88;4.15;;;6.90;45.40;;;;;;4989128;28;20064;-77
2023/03/05 06:50:37;;;;;;;4.30;3.45;;;6.80;45.20;;;;;;4989309;28;20034;-75
2023/03/05 06:53:03;;;;;;;5.25;3.92;;;6.80;45.20;;;;;;4982816;28;20046;-77
2023/03/05 06:55:29;;;;;;;4.43;3.88;;;6.80;45.10;;;;;;4986954;28;20035;-78
2023/03/05 06:57:55;;;;;;;4.47;3.85;;;6.80;45.10;;;;;;4988444;28;20057;-76
2023/03/05 07:00:21;;;;;;;5.55;4.38;;;6.80;45.10;;;;;;4983574;28;20039;-77
2023/03/05 07:02:50;;;;;;;5.75;4.68;;;6.80;45.10;;;;;;4988088;28;20325;-75
2023/03/05 07:05:15;;;;;;;5.05;4.30;;;6.80;45.00;;;;;;4983772;28;20061;-77
2023/03/05 07:07:42;;;;;;;7.28;4.40;;;6.80;45.00;;;;;;4988407;28;20038;-77
2023/03/05 07:10:08;;;;;;;5.35;4.57;;;6.80;45.00;;;;;;4997052;28;20053;-80
2023/03/05 07:12:34;;;;;;;7.38;5.28;;;6.80;45.00;;;;;;4975886;28;20042;-81
2023/03/05 07:15:00;;;;;;;6.93;4.85;;;6.80;45.00;;;;;;4986318;28;20045;-75
2023/03/05 07:17:27;;;;;;;8.15;4.63;;;6.90;44.90;;;;;;4988008;28;20216;-79
2023/03/05 07:19:52;;;;;;;9.48;4.93;;;6.90;44.80;;;;;;4989352;28;20117;-79
2023/03/05 07:22:18;;;;;;;5.38;4.47;;;6.90;44.60;;;;;;4966785;28;20181;-76
2023/03/05 07:24:45;;;;;;;4.50;3.97;;;7.00;44.60;;;;;;4981734;28;20430;-76
2023/03/05 07:27:11;;;;;;;4.32;3.80;;;7.00;44.40;;;;;;4980666;28;20386;-75
2023/03/05 07:29:37;;;;;;;8.50;6.13;;;7.00;44.00;;;;;;4992089;28;20038;-75
2023/03/05 07:32:04;;;;;;;4.55;4.00;;;7.00;43.80;;;;;;4984122;28;20077;-75
2023/03/05 07:34:30;;;;;;;8.82;3.80;;;7.00;43.70;;;;;;4984133;28;20050;-75
2023/03/05 07:36:56;;;;;;;4.63;3.38;;;7.00;43.60;;;;;;4981789;28;20034;-75
2023/03/05 07:39:22;;;;;;;7.05;3.90;;;6.90;43.40;;;;;;4984040;28;20397;-76
2023/03/05 07:41:50;;;;;;;5.07;3.25;;;6.90;43.40;;;;;;4982654;28;20031;-75
2023/03/05 07:44:16;;;;;;;5.68;3.53;;;6.80;43.20;;;;;;4981398;28;20093;-76
2023/03/05 07:46:43;;;;;;;5.22;3.35;;;6.80;43.20;;;;;;4982950;28;20510;-76
2023/03/05 07:49:09;;;;;;;5.72;3.35;;;6.70;43.00;;;;;;4983789;28;20310;-77
2023/03/05 07:51:36;;;;;;;4.47;3.40;;;6.70;43.00;;;;;;4981154;28;20075;-75
2023/03/05 07:54:02;;;;;;;8.18;3.65;;;6.70;43.00;;;;;;4982410;28;20399;-76
2023/03/05 07:56:31;;;;;;;7.15;3.50;;;6.60;42.80;;;;;;4982882;28;20101;-75
2023/03/05 07:59:03;;;;;;;4.88;3.70;;;6.60;42.80;;;;;;4981818;28;20034;-76
2023/03/05 08:01:30;;;;;;;4.85;3.70;;;6.60;42.80;;;;;;5001251;28;20049;-76
2023/03/05 08:03:57;;;;;;;5.93;3.45;;;6.50;42.60;;;;;;4988753;28;20027;-76
2023/03/05 08:06:23;;;;;;;4.90;3.50;;;6.50;42.50;;;;;;4978105;28;20129;-78
2023/03/05 08:08:49;;;;;;;4.63;4.03;;;6.50;42.50;;;;;;4982558;28;20066;-78
2023/03/05 08:11:17;;;;;;;8.15;3.95;;;6.50;42.40;;;;;;4980875;28;20398;-76
2023/03/05 08:13:44;;;;;;;5.15;3.13;;;6.50;42.40;;;;;;4981433;28;20065;-75
2023/03/05 08:16:18;;;;;;;6.10;3.60;;;6.40;42.20;;;;;;4982762;28;20026;-75
2023/03/05 08:18:45;;;;;;;5.88;3.50;;;6.40;42.20;;;;;;4983335;28;20099;-75
2023/03/05 08:21:32;;;;;;;4.22;3.75;;;6.40;42.20;;;;;;4961539;28;20514;-75
2023/03/05 08:23:59;;;;;;;4.53;3.80;;;6.50;42.40;;;;;;4978181;28;20121;-76
2023/03/05 08:26:27;;;;;;;3.97;3.35;;;6.60;42.50;;;;;;4978633;28;20502;-75
2023/03/05 08:28:54;;;;;;;4.93;3.75;;;6.60;42.30;;;;;;4981362;28;20104;-75
2023/03/05 08:31:22;;;;;;;6.03;3.25;;;6.60;42.10;;;;;;4972726;28;20543;-75
2023/03/05 08:33:51;;;;;;;6.07;3.40;;;6.70;42.20;;;;;;4983429;28;20077;-75
2023/03/05 08:36:17;;;;;;;7.90;4.05;;;6.70;42.20;;;;;;4983408;28;20030;-75
2023/03/05 08:38:45;;;;;;;6.63;3.78;;;6.70;42.10;;;;;;4980104;28;20038;-72
2023/03/05 08:41:13;;;;;;;4.43;3.35;;;6.80;42.30;;;;;;4980743;28;20040;-76
2023/03/05 08:43:38;;;;;;;3.85;3.05;;;6.80;42.20;;;;;;4979817;28;20109;-75
2023/03/05 08:46:05;;;;;;;5.05;3.40;;;6.80;42.20;;;;;;4981786;28;20038;-75
2023/03/05 08:48:31;;;;;;;16.80;3.80;;;6.80;42.20;;;;;;4988968;28;20058;-76
2023/03/05 08:51:04;;;;;;;8.70;3.85;;;6.90;43.00;;;;;;4976407;28;20253;-76
2023/03/05 08:53:30;;;;;;;10.88;3.50;;;6.90;42.50;;;;;;4980754;28;20061;-75
2023/03/05 08:55:57;;;;;;;4.68;3.33;;;7.10;42.90;;;;;;4979593;28;20745;-75
2023/03/05 08:58:23;;;;;;;9.27;3.30;;;7.20;43.00;;;;;;4983337;28;20025;-75
2023/03/05 09:00:49;;;;;;;4.97;3.78;;;7.30;43.00;;;;;;4980559;28;20633;-75
2023/03/05 09:03:16;;;;;;;4.18;3.75;;;7.40;43.60;;;;;;4978821;28;20049;-76
2023/03/05 09:05:42;;;;;;;6.30;4.05;;;7.50;43.10;;;;;;4984349;28;20038;-79
2023/03/05 09:08:08;;;;;;;4.72;3.35;;;7.60;43.10;;;;;;4985533;28;20065;-79
2023/03/05 09:10:34;;;;;;;7.25;3.60;;;7.70;43.20;;;;;;4984763;28;20042;-80
2023/03/05 09:13:03;;;;;;;4.35;3.03;;;7.80;43.20;;;;;;4967285;28;20485;-83
2023/03/05 09:15:30;;;;;;;5.90;3.92;;;7.90;43.20;;;;;;4983232;28;20401;-78
2023/03/05 09:17:57;;;;;;;4.45;3.20;;;8.00;43.20;;;;;;4981209;28;20100;-78
2023/03/05 09:20:24;;;;;;;3.83;3.42;;;8.10;43.20;;;;;;4980488;28;20100;-76
2023/03/05 09:22:50;;;;;;;5.18;3.30;;;8.20;43.30;;;;;;4980820;28;20037;-75
2023/03/05 09:25:16;;;;;;;5.03;3.45;;;8.30;43.30;;;;;;4984086;28;20038;-79
2023/03/05 09:27:42;;;;;;;5.75;3.83;;;8.40;43.40;;;;;;4981167;28;20037;-79
2023/03/05 09:30:11;;;;;;;3.47;2.97;;;8.40;43.20;;;;;;4967082;28;20038;-77
2023/03/05 09:32:37;;;;;;;5.22;3.47;;;8.50;43.30;;;;;;4990395;28;20042;-79
2023/03/05 09:35:03;;;;;;;4.32;3.28;;;8.60;43.40;;;;;;4984577;28;20045;-80
2023/03/05 09:37:29;;;;;;;5.60;3.60;;;8.60;43.30;;;;;;4984123;28;20045;-80
2023/03/05 09:39:56;;;;;;;4.38;3.00;;;8.60;43.80;;;;;;4984116;28;20050;-80
2023/03/05 09:42:46;;;;;;;6.07;3.80;;;8.60;43.10;;;;;;4986060;28;20049;-81
2023/03/05 09:45:36;;;;;;;5.05;3.03;;;8.70;43.20;;;;;;4984504;28;20051;-84
2023/03/05 09:48:16;;;;;;;4.65;3.38;;;8.80;43.40;;;;;;4988794;28;20056;-79
2023/03/05 09:51:03;;;;;;;5.15;3.65;;;8.90;43.50;;;;;;4986612;28;20049;-80
2023/03/05 09:53:41;;;;;;;4.63;2.92;;;8.90;43.30;;;;;;4981887;28;20070;-81
2023/03/05 09:56:39;;;;;;;5.22;3.72;;;8.90;43.20;;;;;;4983735;28;20451;-80
2023/03/05 09:59:34;;;;;;;4.05;3.00;;;9.00;43.20;;;;;;4982367;28;20189;-81
2023/03/05 10:02:13;;;;;;;4.25;2.92;;;9.10;43.30;;;;;;4985705;28;20034;-83
2023/03/05 10:04:47;;;;;;;5.30;3.22;;;9.20;43.40;;;;;;4987562;28;20036;-83
2023/03/05 10:07:17;;;;;;;3.88;3.10;;;9.20;43.20;;;;;;4986501;28;20041;-82
2023/03/05 10:09:53;;;;;;;5.43;3.65;;;9.30;43.30;;;;;;4981340;28;20057;-75
2023/03/05 10:12:33;;;;;;;4.78;3.08;;;9.30;43.10;;;;;;4980660;28;20049;-74
2023/03/05 10:15:02;;;;;;;4.35;3.20;;;9.40;43.20;;;;;;4972938;28;20122;-75
2023/03/05 10:17:31;;;;;;;4.03;3.17;;;9.40;43.10;;;;;;4979883;28;20038;-74
2023/03/05 10:20:15;;;;;;;5.28;3.35;;;9.40;43.10;;;;;;4971279;28;20049;-75
2023/03/05 10:23:03;;;;;;;6.65;3.38;;;9.40;43.50;;;;;;4970582;28;20120;-77
2023/03/05 10:25:44;;;;;;;5.55;3.35;;;9.60;44.30;;;;;;4982947;28;20043;-76
2023/03/05 10:28:18;;;;;;;7.47;3.10;;;9.70;44.50;;;;;;4984743;28;20050;-78
2023/03/05 10:30:53;;;;;;;5.18;3.08;;;9.80;44.50;;;;;;4977942;28;20118;-77
2023/03/05 10:33:22;;;;;;;3.50;3.10;;;9.90;44.60;;;;;;4980245;28;20456;-75
2023/03/05 10:36:12;;;;;;;4.88;3.30;;;9.90;44.60;;;;;;4981640;28;20035;-75
2023/03/05 10:39:04;;;;;;;4.60;2.92;;;10.00;44.70;;;;;;4981620;28;20444;-77
2023/03/05 10:41:51;;;;;;;4.70;3.33;;;10.00;44.70;;;;;;4981558;28;20101;-76
2023/03/05 10:44:25;;;;;;;3.95;3.03;;;10.10;44.80;;;;;;4980856;28;20034;-76
2023/03/05 10:46:56;;;;;;;4.45;3.95;;;10.10;44.80;;;;;;4987658;28;20313;-76
2023/03/05 10:49:30;;;;;;;4.18;3.03;;;10.10;44.70;;;;;;5001898;28;20034;-77
2023/03/05 10:52:16;;;;;;;4.20;2.60;;;10.20;44.80;;;;;;4996792;28;20045;-76
2023/03/05 10:54:43;;;;;;;4.68;3.22;;;10.30;44.90;;;;;;4995476;28;20061;-78
2023/03/05 10:57:27;;;;;;;3.75;2.72;;;10.40;45.00;;;;;;4996045;28;20050;-77
2023/03/05 11:00:04;;;;;;;3.90;3.28;;;10.40;44.80;;;;;;5000309;28;20873;-77
2023/03/05 11:02:31;;;;;;;5.60;2.92;;;10.50;44.90;;;;;;4991433;28;20870;-74
2023/03/05 11:04:57;;;;;;;5.85;3.67;;;10.50;44.80;;;;;;4986333;28;20035;-75
2023/03/05 11:07:23;;;;;;;4.72;2.92;;;10.60;44.90;;;;;;4981839;28;20046;-75
2023/03/05 11:10:14;;;;;;;7.93;3.17;;;10.60;44.90;;;;;;4989095;28;20034;-75
2023/03/05 11:12:40;;;;;;;9.73;3.22;;;10.70;45.70;;;;;;4973157;28;20045;-74
2023/03/05 11:15:09;;;;;;;6.05;2.60;;;10.90;45.90;;;;;;4983798;28;20026;-75
2023/03/05 11:17:43;;;;;;;5.38;3.25;;;11.10;46.10;;;;;;4985396;28;20458;-75
2023/03/05 11:20:27;;;;;;;3.88;3.00;;;11.20;45.90;;;;;;4982882;28;20034;-75
2023/03/05 11:23:22;;;;;;;4.78;2.60;;;11.20;45.40;;;;;;4982077;28;20031;-74
2023/03/05 11:26:04;;;;;;;3.92;3.10;;;11.20;45.20;;;;;;4980008;28;20117;-75
2023/03/05 11:28:36;;;;;;;4.35;2.65;;;11.20;45.20;;;;;;4967982;28;20046;-74
2023/03/05 11:31:14;;;;;;;3.38;2.80;;;11.20;45.10;;;;;;4992034;28;20109;-74
2023/03/05 11:34:00;;;;;;;6.32;2.90;;;11.10;44.60;;;;;;4989981;28;20050;-74
2023/03/05 11:36:29;;;;;;;4.35;3.22;;;11.10;44.50;;;;;;4985750;28;20472;-74
2023/03/05 11:39:06;;;;;;;2.92;2.53;;;11.10;44.60;;;;;;4984807;28;20084;-76
2023/03/05 11:42:01;;;;;;;4.75;3.20;;;11.00;44.20;;;;;;4984893;28;20044;-76
2023/03/05 11:44:42;;;;;;;4.65;3.17;;;11.00;44.20;;;;;;4984514;28;20088;-76
2023/03/05 11:47:30;;;;;;;5.68;3.30;;;10.90;43.90;;;;;;4980500;28;20057;-74
2023/03/05 11:50:14;;;;;;;4.47;3.10;;;10.90;44.00;;;;;;4979922;28;20034;-75
2023/03/05 11:53:01;;;;;;;4.10;2.60;;;10.80;43.70;;;;;;4988119;28;20053;-76
2023/03/05 11:55:32;;;;;;;5.57;3.13;;;10.80;44.00;;;;;;4959241;28;20442;-76
2023/03/05 11:58:36;;;;;;;6.28;3.05;;;10.80;44.20;;;;;;4973449;28;20065;-75
2023/03/05 12:01:05;;;;;;;5.57;3.38;;;10.80;44.00;;;;;;4991039;28;20039;-76
2023/03/05 12:03:37;;;;;;;4.95;2.80;;;10.80;44.10;;;;;;4975663;28;20042;-75
2023/03/05 12:06:14;;;;;;;5.20;3.70;;;10.80;44.10;;;;;;4982683;28;20052;-76
2023/03/05 12:08:45;;;;;;;3.85;2.80;;;10.70;43.90;;;;;;4982621;28;20044;-76
2023/03/05 12:11:22;;;;;;;4.07;2.92;;;10.70;44.00;;;;;;4981568;28;20544;-79
2023/03/05 12:13:55;;;;;;;3.03;2.70;;;10.70;44.20;;;;;;4978557;28;20045;-77
2023/03/05 12:16:23;;;;;;;5.85;2.90;;;10.70;44.40;;;;;;4980274;28;20061;-75
2023/03/05 12:18:59;;;;;;;3.08;2.40;;;10.80;44.70;;;;;;4979872;28;20033;-76
2023/03/05 12:21:37;;;;;;;4.47;3.30;;;10.90;44.90;;;;;;4980997;28;20085;-77
2023/03/05 12:24:24;;;;;;;5.38;3.47;;;11.00;45.00;;;;;;4974143;28;20501;-77
2023/03/05 12:27:08;;;;;;;4.97;3.70;;;11.10;45.30;;;;;;4983052;28;20149;-77
2023/03/05 12:29:46;;;;;;;6.03;5.43;;;11.20;45.40;;;;;;4994951;28;20030;-77
2023/03/05 12:32:23;;;;;;;8.13;7.32;;;11.30;45.70;;;;;;4966612;28;20439;-77
2023/03/05 12:34:59;;;;;;;12.07;9.73;;;11.40;46.00;;;;;;4980622;28;20057;-77
2023/03/05 12:37:26;;;;;;;11.65;10.10;;;11.50;46.30;;;;;;4973934;28;20054;-78
2023/03/05 12:40:07;;;;;;;12.73;11.43;;;11.50;46.40;;;;;;4996891;28;20053;-83
2023/03/05 12:42:34;;;;;;;21.02;14.40;;;11.60;46.90;;;;;;4986050;28;20500;-77
2023/03/05 12:45:09;;;;;;;26.98;17.10;;;11.60;47.00;;;;;;4982364;28;20113;-77
2023/03/05 12:47:35;;;;;;;19.42;13.75;;;11.70;47.80;;;;;;4975317;28;20063;-77
2023/03/05 12:50:03;;;;;;;13.00;9.07;;;11.80;48.20;;;;;;4974457;28;20065;-77
2023/03/05 12:52:33;;;;;;;8.43;7.53;;;11.80;48.30;;;;;;4975601;28;20061;-86
2023/03/05 12:55:14;;;;;;;9.68;7.88;;;11.80;47.90;;;;;;4975354;28;20386;-81
2023/03/05 12:57:45;;;;;;;10.93;7.60;;;11.80;48.20;;;;;;4984155;28;20089;-80
2023/03/05 13:00:23;;;;;;;7.18;5.95;;;11.80;48.30;;;;;;4984103;28;20038;-80
2023/03/05 13:02:56;;;;;;;6.07;5.40;;;11.70;48.00;;;;;;4996913;28;20124;-83